Medemborg — PJAG — position and weather

sailwx.info

Track history (hours):
 
Tides and Currents Weather Stations Pressure Air Temp Water Temp Dewpoint Dewpoint Depression Visibility Wind Speed Wind Dir Waves Ship Positions

Medemborg

Last reported at 2015-Mar-05 09:18 UTC. Time now 2015-Mar-05 10:31 UTC.
Position N 50°28' W 000°16'.

Length 135 m; draft 7.2 m.

Type: Cargo ship. MMSI: 306581000.

Date/timePositionNaut miles runAvg speedWind from/ knotsBaromVisibWave heightAir tempDewpointWater temp
2015-Mar-05 09:18N 50°28' W 000°16'810.2
2015-Mar-05 08:33N 50°30' W 000°04'1410.7
2015-Mar-05 07:14N 50°34' E 000°17'811.9
2015-Mar-05 06:33N 50°37' E 000°29'1312.8
2015-Mar-05 05:33N 50°43' E 000°46'1413.8
2015-Mar-05 04:33N 50°51' E 001°04'1313.1
2015-Mar-05 03:33N 50°60' E 001°20'1211.9
2015-Mar-05 02:33N 51°07' E 001°34'1110.6
2015-Mar-05 01:33N 51°15' E 001°47'1110.7
2015-Mar-05 00:33N 51°24' E 001°55'1211.5
2015-Mar-04 23:34N 51°33' E 002°06'1212.1
2015-Mar-04 22:33N 51°42' E 002°19'8912.4
2015-Mar-04 15:21N 52°52' E 003°50'10 9.6
2015-Mar-04 14:18N 52°60' E 004°01'8 9.7
2015-Mar-04 13:27N 53°05' E 004°12'2311.0
2015-Mar-04 11:23N 53°24' E 004°32'911.4
2015-Mar-04 10:33N 53°33' E 004°37'5110.1
2015-Mar-04 05:33N 54°21' E 005°05'20310.1
2015-Mar-03 09:30N 57°10' E 008°25'7610.4
2015-Mar-03 02:07N 57°46' E 010°30'8 9.5
2015-Mar-03 01:19N 57°47' E 010°44'7 9.6
2015-Mar-03 00:33N 57°40' E 010°39'1 0.5
2015-Mar-02 22:17N 57°40' E 010°37'0 0.2
2015-Mar-02 19:29N 57°40' E 010°38'1212.7
2015-Mar-02 18:33N 57°35' E 010°58'1313.1
2015-Mar-02 17:33N 57°30' E 011°21'1111.2
2015-Mar-02 16:33N 57°20' E 011°32'1211.6
2015-Mar-02 15:31N 57°09' E 011°39'1211.9
2015-Mar-02 14:33N 56°58' E 011°46'1312.7
2015-Mar-02 13:33N 56°46' E 011°54'1212.0
2015-Mar-02 12:33N 56°35' E 011°59'1212.2
2015-Mar-02 11:33N 56°23' E 012°04'1211.8
2015-Mar-02 10:33N 56°14' E 012°17'1212.5
2015-Mar-02 09:33N 56°06' E 012°35'1212.0
2015-Mar-02 08:33N 55°55' E 012°45'1211.8
2015-Mar-02 07:33N 55°44' E 012°41'1010.0
2015-Mar-02 06:33N 55°34' E 012°42'1111.0
2015-Mar-02 05:33N 55°23' E 012°41'10 9.7
2015-Mar-02 04:33N 55°16' E 012°53'1111.4
2015-Mar-02 03:33N 55°15' E 013°13'1411.5
2015-Mar-02 02:22N 55°15' E 013°37'911.3
2015-Mar-02 01:33N 55°14' E 013°53'1111.1
2015-Mar-02 00:33N 55°14' E 014°13'1010.4
2015-Mar-01 23:34N 55°21' E 014°26'1110.6
2015-Mar-01 22:33N 55°29' E 014°39'1111.0
2015-Mar-01 21:34N 55°34' E 014°55'1111.0
2015-Mar-01 20:33N 55°39' E 015°13'119 9.7
2015-Mar-01 08:17N 57°12' E 017°28'811.0
2015-Mar-01 07:32N 57°20' E 017°33'  
Track history (hours):
 
Tides and Currents Weather Stations Pressure Air Temp Water Temp Dewpoint Dewpoint Depression Visibility Wind Speed Wind Dir Waves Ship Positions

Medemborg

Last reported at 2015-Mar-05 09:18 UTC. Time now 2015-Mar-05 10:31 UTC.
Position N 50°28' W 000°16'.

Length 135 m; draft 7.2 m.

Type: Cargo ship. MMSI: 306581000.

Date/timePositionNaut miles runAvg speedWind from/ knotsBaromVisibWave heightAir tempDewpointWater temp
2015-Mar-05 09:18N 50°28' W 000°16'810.2
2015-Mar-05 08:33N 50°30' W 000°04'1410.7
2015-Mar-05 07:14N 50°34' E 000°17'811.9
2015-Mar-05 06:33N 50°37' E 000°29'1312.8
2015-Mar-05 05:33N 50°43' E 000°46'1413.8
2015-Mar-05 04:33N 50°51' E 001°04'1313.1
2015-Mar-05 03:33N 50°60' E 001°20'1211.9
2015-Mar-05 02:33N 51°07' E 001°34'1110.6
2015-Mar-05 01:33N 51°15' E 001°47'1110.7
2015-Mar-05 00:33N 51°24' E 001°55'1211.5
2015-Mar-04 23:34N 51°33' E 002°06'1212.1
2015-Mar-04 22:33N 51°42' E 002°19'8912.4
2015-Mar-04 15:21N 52°52' E 003°50'10 9.6
2015-Mar-04 14:18N 52°60' E 004°01'8 9.7
2015-Mar-04 13:27N 53°05' E 004°12'2311.0
2015-Mar-04 11:23N 53°24' E 004°32'911.4
2015-Mar-04 10:33N 53°33' E 004°37'5110.1
2015-Mar-04 05:33N 54°21' E 005°05'20310.1
2015-Mar-03 09:30N 57°10' E 008°25'7610.4
2015-Mar-03 02:07N 57°46' E 010°30'8 9.5
2015-Mar-03 01:19N 57°47' E 010°44'7 9.6
2015-Mar-03 00:33N 57°40' E 010°39'1 0.5
2015-Mar-02 22:17N 57°40' E 010°37'0 0.2
2015-Mar-02 19:29N 57°40' E 010°38'1212.7
2015-Mar-02 18:33N 57°35' E 010°58'1313.1
2015-Mar-02 17:33N 57°30' E 011°21'1111.2
2015-Mar-02 16:33N 57°20' E 011°32'1211.6
2015-Mar-02 15:31N 57°09' E 011°39'1211.9
2015-Mar-02 14:33N 56°58' E 011°46'1312.7
2015-Mar-02 13:33N 56°46' E 011°54'1212.0
2015-Mar-02 12:33N 56°35' E 011°59'1212.2
2015-Mar-02 11:33N 56°23' E 012°04'1211.8
2015-Mar-02 10:33N 56°14' E 012°17'1212.5
2015-Mar-02 09:33N 56°06' E 012°35'1212.0
2015-Mar-02 08:33N 55°55' E 012°45'1211.8
2015-Mar-02 07:33N 55°44' E 012°41'1010.0
2015-Mar-02 06:33N 55°34' E 012°42'1111.0
2015-Mar-02 05:33N 55°23' E 012°41'10 9.7
2015-Mar-02 04:33N 55°16' E 012°53'1111.4
2015-Mar-02 03:33N 55°15' E 013°13'1411.5
2015-Mar-02 02:22N 55°15' E 013°37'911.3
2015-Mar-02 01:33N 55°14' E 013°53'1111.1
2015-Mar-02 00:33N 55°14' E 014°13'1010.4
2015-Mar-01 23:34N 55°21' E 014°26'1110.6
2015-Mar-01 22:33N 55°29' E 014°39'1111.0
2015-Mar-01 21:34N 55°34' E 014°55'1111.0
2015-Mar-01 20:33N 55°39' E 015°13'119 9.7
2015-Mar-01 08:17N 57°12' E 017°28'811.0
2015-Mar-01 07:32N 57°20' E 017°33'  

Dump ship's entire track history